Time;durP1;ratioP1;P1;durP2;ratioP2;P2;SDS_P1;SDS_P2;PMS_P1;PMS_P2;Temp;Humidity;BMP_temperature;BMP_pressure;BME280_temperature;BME280_humidity;BME280_pressure;Samples;Min_cycle;Max_cycle;Signal;HPM_P1;HPM_P2
2022/03/04 00:00:54;;;;;;;14.57;12.90;;;3.70;99.90;;;;;;5097596;28;20393;-60
2022/03/04 00:03:20;;;;;;;14.77;13.10;;;3.70;99.90;;;;;;5098759;28;20384;-60
2022/03/04 00:05:46;;;;;;;14.88;13.02;;;3.70;99.90;;;;;;5098137;28;20396;-60
2022/03/04 00:08:11;;;;;;;13.38;11.98;;;3.60;99.90;;;;;;5114409;28;20489;-60
2022/03/04 00:10:38;;;;;;;14.00;12.60;;;3.50;99.90;;;;;;5097818;28;20472;-60
2022/03/04 00:13:04;;;;;;;14.63;12.87;;;3.50;99.90;;;;;;5116278;28;20407;-60
2022/03/04 00:15:30;;;;;;;13.73;12.15;;;3.50;99.90;;;;;;5102592;28;20472;-60
2022/03/04 00:17:56;;;;;;;12.80;11.50;;;3.50;99.90;;;;;;5102465;28;20453;-60
2022/03/04 00:20:22;;;;;;;12.77;11.47;;;3.50;99.90;;;;;;5119857;28;20687;-60
2022/03/04 00:22:48;;;;;;;13.43;12.02;;;3.40;99.90;;;;;;5102140;28;20445;-60
2022/03/04 00:25:14;;;;;;;12.73;11.45;;;3.40;99.90;;;;;;5102663;28;20471;-60
2022/03/04 00:27:40;;;;;;;12.73;11.20;;;3.50;99.90;;;;;;5120833;28;20753;-60
2022/03/04 00:30:06;;;;;;;14.30;12.63;;;3.60;99.90;;;;;;5101847;28;20811;-60
2022/03/04 00:32:32;;;;;;;14.88;13.32;;;3.60;99.90;;;;;;5102422;28;20407;-60
2022/03/04 00:34:57;;;;;;;14.40;12.87;;;3.40;99.90;;;;;;5103527;28;20714;-59
2022/03/04 00:37:23;;;;;;;15.40;13.80;;;3.40;99.90;;;;;;5120676;28;20463;-60
2022/03/04 00:39:49;;;;;;;16.15;13.38;;;3.30;99.90;;;;;;5120783;28;20372;-60
2022/03/04 00:42:14;;;;;;;15.48;13.77;;;3.30;99.90;;;;;;5103323;28;20384;-60
2022/03/04 00:44:40;;;;;;;14.40;12.90;;;3.30;99.90;;;;;;5101901;28;20400;-59
2022/03/04 00:47:06;;;;;;;14.20;12.70;;;3.40;99.90;;;;;;5102440;28;20386;-60
2022/03/04 00:49:32;;;;;;;14.65;13.15;;;3.40;99.90;;;;;;5101353;28;20736;-59
2022/03/04 00:51:59;;;;;;;14.97;13.40;;;3.40;99.90;;;;;;5086555;28;20581;-59
2022/03/04 00:54:26;;;;;;;15.10;13.50;;;3.50;99.90;;;;;;5098950;28;20515;-58
2022/03/04 00:56:53;;;;;;;15.20;13.00;;;3.50;99.90;;;;;;5119567;28;20384;-59
2022/03/04 00:59:18;;;;;;;16.00;14.23;;;3.50;99.90;;;;;;5101441;28;20403;-60
2022/03/04 01:01:45;;;;;;;15.43;13.00;;;3.50;99.90;;;;;;5102444;28;20380;-60
2022/03/04 01:04:12;;;;;;;15.77;14.10;;;3.40;99.90;;;;;;5102129;28;20387;-59
2022/03/04 01:06:39;;;;;;;17.67;14.30;;;3.00;99.90;;;;;;5119125;28;20399;-59
2022/03/04 01:09:06;;;;;;;16.30;14.52;;;3.00;99.90;;;;;;5118037;28;20689;-58
2022/03/04 01:11:32;;;;;;;15.90;14.20;;;3.10;99.90;;;;;;5118759;28;20387;-59
2022/03/04 01:13:58;;;;;;;16.63;14.77;;;3.20;99.90;;;;;;5099876;28;20403;-60
2022/03/04 01:16:25;;;;;;;15.93;14.03;;;3.20;99.90;;;;;;5118398;28;20618;-59
2022/03/04 01:18:52;;;;;;;15.32;13.65;;;3.10;99.90;;;;;;5100720;28;20384;-60
2022/03/04 01:21:19;;;;;;;15.60;14.00;;;3.20;99.90;;;;;;5099948;28;20449;-60
2022/03/04 01:23:45;;;;;;;15.57;13.90;;;3.20;99.90;;;;;;5099626;28;20396;-60
2022/03/04 01:26:13;;;;;;;16.42;14.55;;;3.30;99.90;;;;;;5100944;28;20388;-58
2022/03/04 01:28:40;;;;;;;16.00;14.30;;;3.30;99.90;;;;;;5096453;28;20497;-59
2022/03/04 01:31:10;;;;;;;15.27;13.53;;;3.20;99.90;;;;;;5097539;28;20710;-60
2022/03/04 01:33:37;;;;;;;15.75;14.13;;;3.20;99.90;;;;;;5097286;28;21040;-59
2022/03/04 01:36:03;;;;;;;16.92;15.13;;;3.30;99.90;;;;;;5084240;28;20419;-60
2022/03/04 01:38:30;;;;;;;15.18;13.57;;;3.20;99.90;;;;;;5078810;28;20437;-60
2022/03/04 01:40:57;;;;;;;14.77;13.05;;;3.20;99.90;;;;;;5089930;28;20398;-59
2022/03/04 01:43:23;;;;;;;15.77;14.10;;;3.20;99.90;;;;;;5094506;28;20499;-60
2022/03/04 01:45:50;;;;;;;14.95;13.43;;;3.20;99.90;;;;;;5077702;28;20482;-59
2022/03/04 01:48:20;;;;;;;16.58;13.93;;;3.20;99.90;;;;;;5078390;28;20833;-60
2022/03/04 01:50:51;;;;;;;17.13;15.13;;;3.20;99.90;;;;;;5083597;28;20394;-60
2022/03/04 01:53:18;;;;;;;16.88;15.07;;;3.20;99.90;;;;;;5098232;28;20855;-61
2022/03/04 01:55:45;;;;;;;16.65;14.73;;;3.10;99.90;;;;;;5086714;28;20853;-60
2022/03/04 01:58:10;;;;;;;17.45;15.30;;;3.10;99.90;;;;;;5077158;28;20418;-59
2022/03/04 02:00:38;;;;;;;18.50;15.53;;;3.00;99.90;;;;;;5077224;28;20392;-61
2022/03/04 02:03:10;;;;;;;18.65;15.30;;;2.90;99.90;;;;;;5078216;28;20410;-61
2022/03/04 02:05:37;;;;;;;17.87;14.77;;;2.90;99.90;;;;;;5086871;28;20402;-61
2022/03/04 02:08:04;;;;;;;16.90;14.87;;;2.90;99.90;;;;;;5098365;28;20415;-61
2022/03/04 02:10:31;;;;;;;17.27;15.05;;;3.00;99.90;;;;;;5098224;28;20393;-61
2022/03/04 02:12:57;;;;;;;19.85;16.50;;;2.90;99.90;;;;;;5084627;28;20400;-60
2022/03/04 02:15:24;;;;;;;17.35;15.48;;;2.90;99.90;;;;;;5078315;28;20402;-61
2022/03/04 02:17:51;;;;;;;20.43;16.23;;;3.00;99.90;;;;;;5077937;28;20376;-60
2022/03/04 02:20:21;;;;;;;19.80;16.38;;;3.00;99.90;;;;;;5084698;28;20815;-58
2022/03/04 02:22:50;;;;;;;19.30;16.75;;;3.10;99.90;;;;;;5091312;28;20396;-61
2022/03/04 02:25:17;;;;;;;18.67;15.73;;;3.10;99.90;;;;;;5078017;28;20391;-59
2022/03/04 02:27:44;;;;;;;18.13;15.98;;;3.20;99.90;;;;;;5078049;28;20442;-61
2022/03/04 02:30:11;;;;;;;18.65;15.77;;;3.30;99.90;;;;;;5078047;28;20423;-60
2022/03/04 02:32:39;;;;;;;19.08;15.73;;;3.30;99.90;;;;;;5078394;28;20723;-60
2022/03/04 02:35:05;;;;;;;19.10;16.45;;;3.30;99.90;;;;;;5057889;28;20507;-61
2022/03/04 02:37:32;;;;;;;18.63;15.60;;;3.20;99.90;;;;;;5057471;28;20400;-60
2022/03/04 02:39:59;;;;;;;17.00;15.10;;;3.30;99.90;;;;;;5063493;28;20483;-60
2022/03/04 02:42:25;;;;;;;17.13;14.82;;;3.30;99.90;;;;;;5077315;28;20404;-60
2022/03/04 02:44:51;;;;;;;15.60;13.88;;;3.20;99.90;;;;;;5077202;28;20512;-59
2022/03/04 02:47:17;;;;;;;16.08;14.38;;;3.20;99.90;;;;;;5077515;28;20450;-60
2022/03/04 02:49:44;;;;;;;16.60;14.23;;;3.20;99.90;;;;;;5077937;28;20395;-61
2022/03/04 02:52:11;;;;;;;16.63;14.52;;;3.10;99.90;;;;;;5077394;28;20407;-60
2022/03/04 02:54:36;;;;;;;17.60;13.63;;;3.20;99.90;;;;;;5077583;28;20407;-59
2022/03/04 02:57:03;;;;;;;16.70;14.27;;;3.10;99.90;;;;;;5077471;28;20410;-60
2022/03/04 02:59:30;;;;;;;17.92;15.23;;;3.10;99.90;;;;;;5078259;28;20399;-61
2022/03/04 03:01:57;;;;;;;17.60;14.27;;;3.10;99.90;;;;;;5076372;28;20392;-60
2022/03/04 03:04:23;;;;;;;19.08;15.57;;;3.10;99.90;;;;;;5075316;28;20387;-60
2022/03/04 03:06:52;;;;;;;15.43;13.65;;;3.20;99.90;;;;;;5074147;28;20392;-60
2022/03/04 03:09:18;;;;;;;18.27;15.48;;;3.30;99.90;;;;;;5075088;28;20468;-60
2022/03/04 03:11:44;;;;;;;16.73;14.45;;;3.30;99.90;;;;;;5076488;28;20477;-60
2022/03/04 03:14:11;;;;;;;16.35;14.52;;;3.30;99.90;;;;;;5076851;28;20407;-59
2022/03/04 03:16:37;;;;;;;19.95;15.57;;;3.30;99.90;;;;;;5077430;28;20387;-60
2022/03/04 03:19:03;;;;;;;18.45;15.30;;;3.30;99.90;;;;;;5075578;28;20414;-60
2022/03/04 03:21:29;;;;;;;19.10;15.40;;;3.20;99.90;;;;;;5075562;28;20384;-60
2022/03/04 03:23:54;;;;;;;18.90;15.50;;;3.20;99.90;;;;;;5076369;28;20502;-61
2022/03/04 03:26:21;;;;;;;21.40;16.37;;;3.20;99.90;;;;;;5077112;28;20399;-61
2022/03/04 03:28:48;;;;;;;19.13;15.18;;;3.10;99.90;;;;;;5087932;28;20496;-61
2022/03/04 03:31:15;;;;;;;18.08;15.43;;;3.10;99.90;;;;;;5080205;28;20386;-59
2022/03/04 03:33:43;;;;;;;17.60;14.57;;;3.20;99.90;;;;;;5079947;28;20394;-60
2022/03/04 03:36:10;;;;;;;16.98;14.15;;;3.20;99.90;;;;;;5110978;28;20735;-61
2022/03/04 03:38:37;;;;;;;19.15;15.88;;;3.00;99.90;;;;;;5099953;28;20376;-61
2022/03/04 03:41:04;;;;;;;22.33;16.52;;;2.80;99.90;;;;;;5100174;28;20400;-61
2022/03/04 03:43:31;;;;;;;18.10;14.73;;;2.70;99.90;;;;;;5115888;28;20399;-60
2022/03/04 03:45:58;;;;;;;17.73;14.55;;;2.60;99.90;;;;;;5089956;28;20907;-60
2022/03/04 03:48:24;;;;;;;18.58;15.30;;;2.80;99.90;;;;;;5078840;28;20899;-61
2022/03/04 03:50:51;;;;;;;19.15;15.07;;;2.80;99.90;;;;;;5096512;28;20390;-61
2022/03/04 03:53:18;;;;;;;16.42;13.73;;;2.90;99.90;;;;;;5079135;28;20390;-60
2022/03/04 03:55:43;;;;;;;15.75;13.13;;;2.90;99.90;;;;;;5078800;28;20413;-60
2022/03/04 03:58:10;;;;;;;16.65;13.48;;;2.90;99.90;;;;;;5079268;28;20382;-61
2022/03/04 04:00:37;;;;;;;15.63;12.98;;;2.90;99.90;;;;;;5078984;28;20382;-61
2022/03/04 04:03:13;;;;;;;15.85;13.02;;;3.00;99.90;;;;;;5079477;28;20388;-61
2022/03/04 04:05:39;;;;;;;15.85;13.00;;;3.10;99.90;;;;;;5092500;28;21009;-61
2022/03/04 04:08:05;;;;;;;15.40;12.95;;;3.10;99.90;;;;;;5100019;28;20427;-60
2022/03/04 04:10:32;;;;;;;18.73;14.35;;;3.20;99.90;;;;;;5098903;28;20415;-60
2022/03/04 04:12:59;;;;;;;16.42;13.50;;;3.10;99.90;;;;;;5098715;28;20500;-60
2022/03/04 04:15:26;;;;;;;17.42;14.45;;;3.10;99.90;;;;;;5117074;28;20400;-61
2022/03/04 04:17:52;;;;;;;18.55;14.80;;;3.00;99.90;;;;;;5099047;28;20389;-60
2022/03/04 04:20:19;;;;;;;16.17;13.50;;;3.00;99.90;;;;;;5088958;28;20427;-61
2022/03/04 04:22:45;;;;;;;15.30;13.10;;;3.00;99.90;;;;;;5078840;28;20393;-61
2022/03/04 04:25:12;;;;;;;17.60;13.60;;;3.00;99.90;;;;;;5079031;28;20398;-61
2022/03/04 04:27:39;;;;;;;16.20;13.75;;;3.10;99.90;;;;;;5075022;28;20407;-61
2022/03/04 04:30:07;;;;;;;17.63;14.68;;;3.10;99.90;;;;;;5075647;28;20387;-61
2022/03/04 04:32:33;;;;;;;16.30;13.68;;;3.00;99.90;;;;;;5074984;28;20461;-60
2022/03/04 04:34:59;;;;;;;15.45;12.75;;;2.90;99.90;;;;;;5075680;28;20442;-60
2022/03/04 04:37:26;;;;;;;14.35;12.23;;;2.90;99.90;;;;;;5076342;28;20394;-61
2022/03/04 04:39:53;;;;;;;16.92;13.50;;;3.00;99.90;;;;;;5075619;28;20637;-59
2022/03/04 04:42:19;;;;;;;15.60;13.15;;;3.00;99.90;;;;;;5075211;28;20391;-61
2022/03/04 04:44:46;;;;;;;15.90;13.27;;;3.00;99.90;;;;;;5075015;28;20679;-60
2022/03/04 04:47:13;;;;;;;15.50;12.67;;;3.00;99.90;;;;;;5074094;28;20487;-60
2022/03/04 04:49:40;;;;;;;15.67;12.47;;;2.90;99.90;;;;;;5074670;28;20399;-61
2022/03/04 04:52:08;;;;;;;16.08;12.73;;;2.80;99.90;;;;;;5075730;28;20394;-59
2022/03/04 04:54:35;;;;;;;14.77;12.05;;;2.80;99.90;;;;;;5073197;28;20411;-58
2022/03/04 04:57:02;;;;;;;14.13;12.13;;;2.70;99.90;;;;;;5074671;28;20785;-60
2022/03/04 04:59:30;;;;;;;13.98;11.85;;;2.80;99.90;;;;;;5073548;28;20392;-61
2022/03/04 05:01:57;;;;;;;13.30;11.30;;;2.80;99.90;;;;;;5076607;28;20627;-59
2022/03/04 05:04:24;;;;;;;16.77;13.00;;;2.80;99.90;;;;;;5075704;28;20398;-60
2022/03/04 05:06:51;;;;;;;14.70;12.23;;;2.80;99.90;;;;;;5075832;28;20482;-60
2022/03/04 05:09:19;;;;;;;14.93;12.65;;;2.80;99.90;;;;;;5078361;28;20383;-61
2022/03/04 05:11:46;;;;;;;14.80;12.07;;;2.70;99.90;;;;;;5077191;28;20391;-61
2022/03/04 05:14:13;;;;;;;14.43;12.63;;;2.80;99.90;;;;;;5077480;28;20403;-61
2022/03/04 05:16:39;;;;;;;13.35;11.60;;;2.70;99.90;;;;;;5077547;28;20403;-61
2022/03/04 05:19:06;;;;;;;13.80;11.85;;;2.60;99.90;;;;;;5077117;28;20486;-61
2022/03/04 05:21:34;;;;;;;14.17;11.77;;;2.60;99.90;;;;;;5077860;28;20409;-61
2022/03/04 05:24:02;;;;;;;13.33;11.63;;;2.60;99.90;;;;;;5077590;28;20417;-61
2022/03/04 05:26:38;;;;;;;12.90;10.98;;;2.60;99.90;;;;;;5079010;28;20853;-60
2022/03/04 05:29:10;;;;;;;14.15;11.38;;;2.60;99.90;;;;;;5079945;28;20397;-61
2022/03/04 05:31:41;;;;;;;13.73;11.55;;;2.60;99.90;;;;;;5092528;28;20803;-60
2022/03/04 05:34:08;;;;;;;13.48;10.98;;;2.60;99.90;;;;;;5082423;28;20393;-60
2022/03/04 05:36:39;;;;;;;12.77;10.65;;;2.40;99.90;;;;;;5079369;28;20770;-61
2022/03/04 05:39:06;;;;;;;11.02;9.68;;;2.40;99.90;;;;;;5075504;28;20638;-60
2022/03/04 05:41:32;;;;;;;12.60;10.63;;;2.40;99.90;;;;;;5089580;28;20374;-58
2022/03/04 05:43:57;;;;;;;12.45;10.27;;;2.30;99.90;;;;;;5090629;28;20436;-60
2022/03/04 05:46:23;;;;;;;13.15;10.52;;;2.40;99.90;;;;;;5072860;28;20425;-60
2022/03/04 05:48:49;;;;;;;11.90;10.27;;;2.40;99.90;;;;;;5073394;28;20399;-60
2022/03/04 05:51:15;;;;;;;11.23;9.77;;;2.40;99.90;;;;;;5086268;28;20833;-60
2022/03/04 05:53:40;;;;;;;12.73;10.43;;;2.40;99.90;;;;;;5093938;28;20840;-60
2022/03/04 05:56:09;;;;;;;12.37;10.70;;;2.40;99.90;;;;;;5074433;28;20495;-61
2022/03/04 05:58:36;;;;;;;14.20;11.00;;;2.30;99.90;;;;;;5092379;28;20743;-60
2022/03/04 06:01:03;;;;;;;12.73;10.67;;;2.30;99.90;;;;;;5075125;28;20470;-60
2022/03/04 06:03:29;;;;;;;12.63;10.75;;;2.30;99.90;;;;;;5076057;28;20395;-59
2022/03/04 06:06:03;;;;;;;13.32;10.55;;;2.30;99.90;;;;;;5076413;28;20503;-60
2022/03/04 06:08:29;;;;;;;11.45;9.98;;;2.30;99.90;;;;;;5076325;28;20401;-61
2022/03/04 06:10:54;;;;;;;11.52;10.07;;;2.30;99.90;;;;;;5095424;28;20407;-61
2022/03/04 06:13:20;;;;;;;10.87;9.37;;;2.30;99.90;;;;;;5096593;28;20392;-61
2022/03/04 06:15:45;;;;;;;12.13;9.97;;;2.30;99.90;;;;;;5078926;28;20417;-61
2022/03/04 06:18:11;;;;;;;14.05;10.02;;;2.20;99.90;;;;;;5078427;28;20423;-60
2022/03/04 06:20:36;;;;;;;12.13;10.20;;;2.30;99.90;;;;;;5077359;28;20853;-60
2022/03/04 06:23:02;;;;;;;12.30;9.90;;;2.30;99.90;;;;;;5076750;28;20484;-60
2022/03/04 06:25:28;;;;;;;12.00;10.27;;;2.30;99.90;;;;;;5092349;28;20393;-60
2022/03/04 06:28:01;;;;;;;13.87;10.90;;;2.30;99.90;;;;;;5091941;28;20829;-60
2022/03/04 06:30:29;;;;;;;10.43;9.07;;;2.20;99.90;;;;;;5075421;28;20435;-61
2022/03/04 06:33:30;;;;;;;12.07;10.48;;;2.30;99.90;;;;;;5074792;28;20382;-61
2022/03/04 06:35:42;;;;;;;12.60;9.93;;;2.30;99.90;;;;;;5090917;28;20504;-61
2022/03/04 06:38:08;;;;;;;12.18;10.00;;;2.30;99.90;;;;;;5072574;28;20401;-60
2022/03/04 06:40:34;;;;;;;12.80;10.60;;;2.20;99.90;;;;;;5072726;28;20428;-61
2022/03/04 06:42:59;;;;;;;12.10;9.80;;;2.20;99.90;;;;;;5072271;28;20928;-61
2022/03/04 06:45:25;;;;;;;10.57;9.47;;;2.20;99.90;;;;;;5090143;28;20400;-60
2022/03/04 06:47:51;;;;;;;12.18;10.07;;;2.30;99.90;;;;;;5088643;28;20427;-61
2022/03/04 06:50:17;;;;;;;9.88;8.35;;;2.30;99.90;;;;;;5073306;28;20755;-60
2022/03/04 06:52:43;;;;;;;10.65;8.77;;;2.30;99.90;;;;;;5107054;28;20417;-60
2022/03/04 06:55:10;;;;;;;9.82;8.32;;;2.40;99.90;;;;;;5090182;28;20445;-61
2022/03/04 06:57:36;;;;;;;10.30;7.77;;;2.40;99.90;;;;;;5091840;28;20392;-60
2022/03/04 07:00:07;;;;;;;9.32;7.63;;;2.40;99.90;;;;;;5088939;28;20397;-60
2022/03/04 07:02:34;;;;;;;8.95;8.05;;;2.40;99.90;;;;;;5073337;28;20382;-60
2022/03/04 07:05:04;;;;;;;11.05;8.88;;;2.40;99.90;;;;;;5074899;28;20390;-58
2022/03/04 07:07:30;;;;;;;11.73;8.77;;;2.40;99.90;;;;;;5089750;28;20388;-60
2022/03/04 07:09:55;;;;;;;11.73;9.05;;;2.40;99.90;;;;;;5095672;28;20388;-61
2022/03/04 07:12:21;;;;;;;12.63;8.93;;;2.40;99.90;;;;;;5080383;28;20950;-61
2022/03/04 07:14:47;;;;;;;10.30;8.90;;;2.30;99.90;;;;;;5090615;28;20415;-59
2022/03/04 07:17:14;;;;;;;11.73;9.80;;;2.20;99.90;;;;;;5092098;28;20500;-61
2022/03/04 07:19:40;;;;;;;12.27;9.05;;;2.10;99.90;;;;;;5090706;28;20381;-60
2022/03/04 07:22:06;;;;;;;10.52;8.52;;;2.20;99.90;;;;;;5088672;28;20408;-61
2022/03/04 07:24:31;;;;;;;12.52;10.25;;;2.30;99.90;;;;;;5067535;28;20451;-60
2022/03/04 07:26:58;;;;;;;10.93;8.97;;;2.30;99.90;;;;;;5067038;28;20421;-59
2022/03/04 07:29:24;;;;;;;9.85;8.27;;;2.30;99.90;;;;;;5087109;28;20389;-58
2022/03/04 07:31:50;;;;;;;11.30;8.95;;;2.30;99.90;;;;;;5069715;28;20374;-60
2022/03/04 07:34:15;;;;;;;11.02;9.38;;;2.30;99.90;;;;;;5072621;28;20455;-60
2022/03/04 07:36:41;;;;;;;11.38;9.02;;;2.40;99.90;;;;;;5071430;28;21015;-60
2022/03/04 07:39:07;;;;;;;10.70;9.10;;;2.40;99.90;;;;;;5073353;28;20484;-59
2022/03/04 07:41:32;;;;;;;10.10;8.50;;;2.40;99.90;;;;;;5075269;28;20431;-58
2022/03/04 07:43:59;;;;;;;10.55;8.52;;;2.40;99.90;;;;;;5075986;28;20447;-60
2022/03/04 07:46:25;;;;;;;10.52;8.85;;;2.40;99.90;;;;;;5074788;28;20385;-60
2022/03/04 07:48:51;;;;;;;11.65;9.30;;;2.40;99.90;;;;;;5073133;28;20385;-60
2022/03/04 07:51:19;;;;;;;11.65;9.15;;;2.40;99.90;;;;;;5072232;28;20389;-59
2022/03/04 07:53:44;;;;;;;10.60;8.55;;;2.40;99.90;;;;;;5070889;28;20463;-60
2022/03/04 07:56:10;;;;;;;9.77;8.15;;;2.40;99.90;;;;;;5071774;28;20398;-60
2022/03/04 07:58:36;;;;;;;10.10;7.93;;;2.50;99.90;;;;;;5071361;28;20386;-61
2022/03/04 08:01:01;;;;;;;9.25;7.75;;;2.50;99.90;;;;;;5070099;28;20878;-60
2022/03/04 08:03:27;;;;;;;7.88;6.82;;;2.50;99.90;;;;;;5089625;28;20386;-58
2022/03/04 08:05:52;;;;;;;8.70;7.47;;;2.60;99.90;;;;;;5071902;28;20451;-59
2022/03/04 08:08:18;;;;;;;8.57;6.47;;;2.60;99.90;;;;;;5091389;28;20393;-61
2022/03/04 08:10:43;;;;;;;8.10;6.97;;;2.60;99.90;;;;;;5074166;28;20512;-60
2022/03/04 08:13:09;;;;;;;8.13;6.97;;;2.60;99.90;;;;;;5089868;28;20933;-61
2022/03/04 08:15:35;;;;;;;7.90;6.33;;;2.70;99.90;;;;;;5090477;28;20417;-61
2022/03/04 08:18:00;;;;;;;8.83;6.87;;;2.60;99.90;;;;;;5071917;28;20382;-60
2022/03/04 08:20:26;;;;;;;7.78;6.70;;;2.60;99.90;;;;;;5072252;28;20382;-60
2022/03/04 08:22:53;;;;;;;7.97;6.57;;;2.50;99.90;;;;;;5072651;28;20401;-61
2022/03/04 08:25:18;;;;;;;8.82;7.07;;;2.60;99.90;;;;;;5072214;28;20491;-61
2022/03/04 08:27:44;;;;;;;7.57;6.43;;;2.60;99.90;;;;;;5058977;28;20475;-59
2022/03/04 08:30:12;;;;;;;8.57;6.60;;;2.60;99.90;;;;;;5049748;28;20410;-61
2022/03/04 08:32:39;;;;;;;8.07;6.73;;;2.70;99.90;;;;;;5052721;28;21038;-60
2022/03/04 08:35:05;;;;;;;8.07;6.25;;;2.70;99.90;;;;;;5071894;28;20410;-59
2022/03/04 08:37:31;;;;;;;6.97;5.93;;;2.70;99.90;;;;;;5058276;28;20387;-61
2022/03/04 08:39:56;;;;;;;9.40;6.72;;;2.70;99.90;;;;;;5074291;28;20394;-60
2022/03/04 08:42:22;;;;;;;8.15;6.53;;;2.70;99.90;;;;;;5074623;28;20897;-61
2022/03/04 08:44:48;;;;;;;7.60;6.38;;;2.70;99.90;;;;;;5046549;28;20407;-61
2022/03/04 08:47:14;;;;;;;9.18;7.20;;;2.80;99.90;;;;;;5052720;28;20399;-61
2022/03/04 08:49:39;;;;;;;8.27;6.67;;;2.80;99.90;;;;;;5054599;28;20399;-60
2022/03/04 08:52:06;;;;;;;9.00;6.77;;;2.80;99.90;;;;;;5072249;28;20399;-60
2022/03/04 08:54:31;;;;;;;7.45;6.20;;;2.90;99.90;;;;;;5054300;28;20406;-60
2022/03/04 08:56:57;;;;;;;8.40;6.95;;;3.00;99.90;;;;;;5070309;28;20395;-61
2022/03/04 08:59:23;;;;;;;8.93;6.75;;;3.10;99.90;;;;;;5070093;28;20453;-60
2022/03/04 09:01:48;;;;;;;8.20;6.40;;;3.00;99.90;;;;;;5054346;28;20395;-60
2022/03/04 09:04:17;;;;;;;7.87;6.87;;;3.00;99.90;;;;;;5051122;28;20543;-60
2022/03/04 09:06:43;;;;;;;7.35;6.18;;;3.00;99.90;;;;;;5054875;28;20454;-59
2022/03/04 09:09:08;;;;;;;7.25;6.25;;;3.00;99.90;;;;;;5070300;28;21102;-60
2022/03/04 09:11:34;;;;;;;8.63;6.07;;;3.10;99.90;;;;;;5050879;28;20553;-60
2022/03/04 09:14:02;;;;;;;8.73;7.25;;;3.20;99.90;;;;;;5054183;28;20388;-59
2022/03/04 09:16:29;;;;;;;7.93;6.40;;;3.00;99.90;;;;;;5053865;28;20411;-59
2022/03/04 09:18:54;;;;;;;8.13;6.70;;;3.00;99.90;;;;;;5056094;28;20379;-60
2022/03/04 09:21:20;;;;;;;7.87;6.57;;;3.00;99.90;;;;;;5051880;28;20391;-61
2022/03/04 09:23:45;;;;;;;8.17;6.87;;;3.00;99.90;;;;;;5055560;28;20395;-60
2022/03/04 09:26:11;;;;;;;9.25;7.20;;;3.10;99.90;;;;;;5050255;28;20707;-59
2022/03/04 09:28:37;;;;;;;9.10;6.78;;;3.10;99.90;;;;;;5075954;28;20891;-60
2022/03/04 09:31:03;;;;;;;8.33;6.90;;;3.10;99.90;;;;;;5090792;28;20398;-61
2022/03/04 09:33:29;;;;;;;8.20;6.93;;;3.20;99.90;;;;;;5073376;28;20396;-60
2022/03/04 09:35:54;;;;;;;8.52;6.72;;;3.20;99.90;;;;;;5074629;28;20410;-59
2022/03/04 09:38:21;;;;;;;8.82;6.80;;;3.20;99.90;;;;;;5085151;28;20469;-59
2022/03/04 09:40:49;;;;;;;7.95;6.68;;;3.20;99.90;;;;;;5092495;28;20812;-60
2022/03/04 09:43:18;;;;;;;8.52;6.50;;;3.20;99.90;;;;;;5073609;28;21032;-60
2022/03/04 09:45:45;;;;;;;8.40;6.70;;;3.30;99.90;;;;;;5082775;28;21004;-60
2022/03/04 09:48:12;;;;;;;10.35;7.32;;;3.40;99.90;;;;;;5078810;28;20388;-60
2022/03/04 09:50:41;;;;;;;8.70;6.45;;;3.40;99.90;;;;;;5101330;28;21124;-60
2022/03/04 09:53:09;;;;;;;6.88;5.82;;;3.40;99.90;;;;;;5094663;28;20401;-61
2022/03/04 09:55:37;;;;;;;8.52;6.80;;;3.50;99.90;;;;;;5081722;28;20420;-60
2022/03/04 09:58:12;;;;;;;7.28;5.88;;;3.60;99.90;;;;;;5088042;28;20408;-60
2022/03/04 10:00:42;;;;;;;7.50;5.60;;;3.60;99.90;;;;;;5092581;28;20385;-60
2022/03/04 10:03:29;;;;;;;6.63;5.60;;;3.70;99.90;;;;;;5074791;28;20473;-60
2022/03/04 10:05:58;;;;;;;6.95;5.85;;;3.80;99.90;;;;;;5092537;28;20873;-60
2022/03/04 10:08:24;;;;;;;6.00;4.90;;;3.90;99.90;;;;;;5093717;28;20518;-60
2022/03/04 10:10:53;;;;;;;6.88;5.05;;;3.90;99.90;;;;;;5093525;28;20388;-59
2022/03/04 10:13:51;;;;;;;6.47;4.97;;;3.90;99.90;;;;;;5110749;28;20471;-58
2022/03/04 10:16:29;;;;;;;4.82;3.83;;;3.90;99.90;;;;;;5091166;28;20408;-60
2022/03/04 10:19:16;;;;;;;5.35;3.92;;;4.10;99.90;;;;;;5093220;28;20433;-60
2022/03/04 10:21:45;;;;;;;5.32;4.45;;;4.20;99.90;;;;;;5110328;28;20438;-60
2022/03/04 10:24:20;;;;;;;5.53;4.35;;;4.20;99.90;;;;;;5091687;28;20380;-57
2022/03/04 10:26:46;;;;;;;6.00;4.82;;;4.20;99.90;;;;;;5090829;28;20790;-60
2022/03/04 10:29:25;;;;;;;5.68;4.68;;;4.20;99.90;;;;;;5091203;28;20459;-60
2022/03/04 10:32:10;;;;;;;4.75;4.10;;;4.20;99.90;;;;;;5090168;28;20403;-61
2022/03/04 10:34:48;;;;;;;5.07;4.35;;;4.30;99.90;;;;;;5110639;28;20411;-60
2022/03/04 10:37:14;;;;;;;4.60;4.00;;;4.40;99.90;;;;;;5092509;28;20409;-60
2022/03/04 10:40:07;;;;;;;4.75;4.22;;;4.50;99.90;;;;;;5091734;28;20410;-59
2022/03/04 10:42:43;;;;;;;6.40;5.13;;;4.50;99.90;;;;;;5092144;28;20388;-60
2022/03/04 10:45:33;;;;;;;5.45;4.57;;;4.50;99.90;;;;;;5111501;28;20401;-60
2022/03/04 10:48:02;;;;;;;5.55;4.15;;;4.50;99.90;;;;;;5093683;28;20391;-60
2022/03/04 10:50:42;;;;;;;7.50;5.38;;;4.60;99.90;;;;;;5091959;28;20839;-60
2022/03/04 10:53:08;;;;;;;7.10;4.90;;;4.70;99.90;;;;;;5093091;28;20475;-60
2022/03/04 10:55:39;;;;;;;5.70;5.07;;;4.80;99.90;;;;;;5092439;28;20466;-60
2022/03/04 10:58:30;;;;;;;5.05;4.22;;;4.90;99.90;;;;;;5110915;28;20372;-60
2022/03/04 11:01:00;;;;;;;4.90;4.00;;;5.00;99.90;;;;;;5093399;28;20393;-60
2022/03/04 11:03:27;;;;;;;5.32;4.43;;;5.20;99.90;;;;;;5092899;28;20830;-60
2022/03/04 11:05:55;;;;;;;5.10;4.38;;;5.70;99.90;;;;;;5111907;28;20416;-60
2022/03/04 11:08:21;;;;;;;6.22;4.50;;;5.90;99.90;;;;;;5093637;28;20384;-60
2022/03/04 11:10:47;;;;;;;5.18;4.68;;;5.90;99.90;;;;;;5092631;28;20388;-59
2022/03/04 11:13:13;;;;;;;6.20;4.33;;;5.80;99.90;;;;;;5093902;28;20552;-60
2022/03/04 11:15:41;;;;;;;5.75;4.78;;;6.00;99.90;;;;;;5110086;28;20473;-60
2022/03/04 11:18:09;;;;;;;5.22;4.00;;;5.90;99.90;;;;;;5111832;28;20383;-60
2022/03/04 11:20:36;;;;;;;5.47;4.30;;;5.80;99.90;;;;;;5111597;28;20380;-59
2022/03/04 11:23:06;;;;;;;6.03;4.53;;;6.10;99.90;;;;;;5113461;28;20382;-60
2022/03/04 11:25:37;;;;;;;5.03;4.03;;;6.30;99.90;;;;;;5093948;28;20568;-59
2022/03/04 11:28:09;;;;;;;5.25;4.75;;;6.70;99.90;;;;;;5109483;28;20494;-59
2022/03/04 11:30:43;;;;;;;5.32;4.25;;;6.70;99.90;;;;;;5092182;28;21069;-61
2022/03/04 11:33:28;;;;;;;5.03;4.00;;;6.50;99.90;;;;;;5091531;28;20467;-61
2022/03/04 11:36:05;;;;;;;6.85;4.65;;;6.40;99.90;;;;;;5073018;28;21216;-61
2022/03/04 11:38:49;;;;;;;4.80;4.13;;;6.40;99.90;;;;;;5088738;28;20380;-61
2022/03/04 11:41:27;;;;;;;4.60;4.10;;;6.50;99.90;;;;;;5074402;28;20390;-59
2022/03/04 11:44:07;;;;;;;6.00;4.50;;;6.60;99.90;;;;;;5073470;28;20393;-61
2022/03/04 11:47:00;;;;;;;6.80;4.47;;;6.60;99.90;;;;;;5074099;28;20397;-61
2022/03/04 11:49:38;;;;;;;5.78;4.78;;;6.80;99.90;;;;;;5075051;28;20397;-61
2022/03/04 11:52:10;;;;;;;6.25;4.50;;;7.10;99.90;;;;;;5088556;28;20390;-61
2022/03/04 11:54:41;;;;;;;5.18;4.43;;;7.40;99.90;;;;;;5091981;28;20710;-61
2022/03/04 11:57:26;;;;;;;4.78;3.78;;;7.80;99.90;;;;;;5077908;28;20416;-60
2022/03/04 12:00:13;;;;;;;5.15;3.97;;;8.40;99.90;;;;;;5094152;28;20395;-61
2022/03/04 12:02:56;;;;;;;4.90;4.00;;;9.00;99.90;;;;;;5091571;28;20797;-61
2022/03/04 12:05:31;;;;;;;4.53;4.03;;;9.30;99.90;;;;;;5064637;28;20385;-61
2022/03/04 12:07:59;;;;;;;4.28;3.78;;;9.50;99.90;;;;;;5098893;28;20388;-60
2022/03/04 12:10:30;;;;;;;6.60;4.22;;;9.50;99.90;;;;;;5077809;28;20465;-61
2022/03/04 12:13:01;;;;;;;4.93;4.05;;;9.70;99.90;;;;;;5072662;28;20393;-60
2022/03/04 12:15:31;;;;;;;4.95;3.75;;;9.90;99.90;;;;;;5071868;28;20398;-61
2022/03/04 12:18:03;;;;;;;6.10;4.20;;;10.10;99.90;;;;;;5071051;28;20461;-61
2022/03/04 12:20:40;;;;;;;4.53;4.07;;;10.00;99.90;;;;;;5072528;28;20374;-61
2022/03/04 12:23:14;;;;;;;4.47;3.88;;;10.20;99.90;;;;;;5073069;28;20416;-61
2022/03/04 12:25:52;;;;;;;5.22;4.05;;;9.70;99.90;;;;;;5089649;28;20390;-61
2022/03/04 12:28:20;;;;;;;4.00;2.78;;;9.90;99.90;;;;;;5067304;28;20869;-61
2022/03/04 12:31:01;;;;;;;5.00;3.88;;;10.30;99.90;;;;;;5082861;28;20455;-61
2022/03/04 12:33:27;;;;;;;6.80;4.00;;;10.60;99.90;;;;;;5068128;28;20404;-60
2022/03/04 12:35:59;;;;;;;3.97;3.05;;;10.60;99.90;;;;;;5065384;28;20413;-61
2022/03/04 12:38:29;;;;;;;3.95;3.55;;;10.90;99.90;;;;;;5081348;28;20381;-60
2022/03/04 12:40:56;;;;;;;3.95;3.38;;;11.20;99.90;;;;;;5080218;28;20455;-61
2022/03/04 12:43:21;;;;;;;5.80;3.78;;;11.30;99.90;;;;;;5061101;28;20616;-61
2022/03/04 12:45:47;;;;;;;3.70;3.00;;;11.20;99.90;;;;;;5060644;28;20382;-61
2022/03/04 12:48:13;;;;;;;5.23;3.33;;;11.70;99.90;;;;;;5062133;28;20455;-59
2022/03/04 12:50:39;;;;;;;4.40;3.47;;;12.10;99.90;;;;;;5062977;28;20396;-61